Time;durP1;ratioP1;P1;durP2;ratioP2;P2;SDS_P1;SDS_P2;PMS_P1;PMS_P2;Temp;Humidity;BMP_temperature;BMP_pressure;BME280_temperature;BME280_humidity;BME280_pressure;Samples;Min_cycle;Max_cycle;Signal;HPM_P1;HPM_P2
2021/07/14 00:00:16;;;;;;;3.43;2.50;;;17.70;1.00;18.50;99960.00;;;;4897639;29;20463;-82
2021/07/14 00:02:45;;;;;;;3.63;2.90;;;17.60;1.00;18.50;99971.00;;;;4930221;29;20608;-82
2021/07/14 00:05:17;;;;;;;3.93;2.57;;;17.70;1.00;18.50;99955.00;;;;4933634;29;20558;-82
2021/07/14 00:07:48;;;;;;;3.70;2.73;;;17.70;1.00;18.40;99981.00;;;;4938868;29;20551;-82
2021/07/14 00:10:20;;;;;;;4.07;2.90;;;17.70;1.00;18.50;99947.00;;;;4908289;29;20515;-82
2021/07/14 00:12:57;;;;;;;3.63;2.80;;;17.70;1.00;18.50;99966.00;;;;4937135;29;20484;-83
2021/07/14 00:23:48;;;;;;;3.70;2.80;;;17.60;1.00;18.30;99959.00;;;;4939751;29;20482;-83
2021/07/14 00:26:17;;;;;;;3.90;3.20;;;17.60;1.00;18.50;99968.00;;;;4916945;29;20491;-85
2021/07/14 00:28:49;;;;;;;7.87;3.20;;;17.60;1.00;18.50;99969.00;;;;4912797;29;20491;-83
2021/07/14 00:31:18;;;;;;;7.00;3.03;;;17.60;1.00;18.50;99876.00;;;;4907019;29;20465;-83
2021/07/14 00:33:49;;;;;;;5.00;3.60;;;17.60;1.00;18.50;99936.00;;;;4912392;29;20444;-83
2021/07/14 00:36:17;;;;;;;5.13;3.43;;;17.60;1.00;18.40;99957.00;;;;4917493;29;20443;-85
2021/07/14 00:38:47;;;;;;;10.70;3.40;;;17.60;1.00;18.50;99948.00;;;;4914549;29;20591;-83
2021/07/14 00:41:17;;;;;;;6.20;5.27;;;17.70;1.00;18.50;99948.00;;;;4942195;29;20522;-83
2021/07/14 00:43:45;;;;;;;3.97;3.27;;;17.60;1.00;18.50;99962.00;;;;4918715;29;20451;-83
2021/07/14 00:46:24;;;;;;;4.30;3.37;;;17.60;1.00;18.50;99968.00;;;;4907826;29;20531;-84
2021/07/14 00:48:54;;;;;;;5.07;3.10;;;17.60;1.00;18.50;99940.00;;;;4911451;29;20484;-84
2021/07/14 00:51:23;;;;;;;3.50;3.20;;;17.60;1.00;18.50;99939.00;;;;4938691;29;20448;-85
2021/07/14 00:53:54;;;;;;;4.93;3.77;;;17.60;1.00;18.50;99964.00;;;;4901425;29;20502;-84
2021/07/14 00:56:22;;;;;;;4.57;3.47;;;17.70;1.00;18.50;99965.00;;;;4891097;29;20495;-84
2021/07/14 00:58:51;;;;;;;4.23;3.23;;;17.60;1.00;18.30;99955.00;;;;4901545;29;20499;-84
2021/07/14 01:01:19;;;;;;;5.83;3.63;;;17.60;1.00;18.50;99950.00;;;;4923613;29;20581;-84
2021/07/14 01:03:59;;;;;;;5.60;3.13;;;17.60;1.00;18.50;99945.00;;;;4927148;29;20475;-85
2021/07/14 01:06:47;;;;;;;8.00;3.50;;;17.60;1.00;18.50;99958.00;;;;4902905;29;20579;-82
2021/07/14 01:09:27;;;;;;;5.00;3.10;;;17.60;1.00;18.40;99883.00;;;;4894550;29;20476;-84
2021/07/14 01:12:04;;;;;;;4.40;3.33;;;17.60;1.00;18.40;99914.00;;;;4903582;29;20566;-82
2021/07/14 01:14:45;;;;;;;4.37;2.93;;;17.60;1.00;18.50;99949.00;;;;4902604;29;20490;-83
2021/07/14 01:17:18;;;;;;;3.93;3.23;;;17.60;1.00;18.50;99951.00;;;;4923798;29;21016;-84
2021/07/14 01:20:21;;;;;;;3.83;3.07;;;17.60;1.00;18.40;99969.00;;;;4927258;29;20594;-84
2021/07/14 01:22:59;;;;;;;3.50;3.00;;;17.50;1.00;18.30;99958.00;;;;4904813;29;20451;-84
2021/07/14 01:25:54;;;;;;;4.43;3.07;;;17.60;1.00;18.40;99916.00;;;;4915877;29;20535;-84
2021/07/14 01:28:27;;;;;;;4.87;3.40;;;17.50;1.00;18.30;99936.00;;;;4904806;29;20487;-84
2021/07/14 01:30:58;;;;;;;4.17;2.97;;;17.50;1.00;18.20;99958.00;;;;4908440;29;20487;-83
2021/07/14 01:33:32;;;;;;;3.90;3.30;;;17.50;1.00;18.20;99944.00;;;;4899266;29;20468;-83
2021/07/14 01:36:06;;;;;;;3.90;3.33;;;17.50;1.00;18.30;99950.00;;;;4930810;29;20459;-84
2021/07/14 01:38:36;;;;;;;4.10;2.90;;;17.50;1.00;18.30;99886.00;;;;4906851;29;20497;-83
2021/07/14 01:41:06;;;;;;;4.50;3.10;;;17.50;1.00;18.20;99919.00;;;;4927635;29;20463;-83
2021/07/14 01:43:41;;;;;;;5.70;3.13;;;17.40;1.00;18.30;99927.00;;;;4897568;29;20490;-83
2021/07/14 01:46:12;;;;;;;3.40;3.03;;;17.50;1.00;18.20;99929.00;;;;4906372;29;20474;-83
2021/07/14 01:48:44;;;;;;;4.20;3.00;;;17.50;1.00;18.30;99919.00;;;;4934905;29;20535;-83
2021/07/14 01:51:15;;;;;;;6.30;3.70;;;17.60;1.00;18.30;99945.00;;;;4932956;29;20572;-83
2021/07/14 01:53:46;;;;;;;4.40;3.30;;;17.50;1.00;18.30;99912.00;;;;4933195;29;20492;-83
2021/07/14 01:56:16;;;;;;;3.47;3.10;;;17.50;1.00;18.30;99943.00;;;;4942642;29;20462;-83
2021/07/14 01:58:48;;;;;;;3.50;3.20;;;17.50;1.00;18.30;99927.00;;;;4939343;29;20471;-83
2021/07/14 02:01:19;;;;;;;3.17;2.87;;;17.50;1.00;18.30;99877.00;;;;4930255;29;20515;-83
2021/07/14 02:04:30;;;;;;;6.07;2.77;;;17.50;1.00;18.20;99937.00;;;;4899254;29;20459;-82
2021/07/14 02:06:49;;;;;;;3.30;3.00;;;17.60;1.00;18.30;99931.00;;;;4910461;29;20490;-84
2021/07/14 02:09:19;;;;;;;3.03;2.83;;;17.40;1.00;18.30;99926.00;;;;4902466;29;20463;-83
2021/07/14 02:11:53;;;;;;;3.10;2.80;;;17.40;1.00;18.30;99904.00;;;;4900364;29;20459;-84
2021/07/14 02:14:30;;;;;;;4.47;2.97;;;17.40;1.00;18.20;99921.00;;;;4930691;29;20478;-84
2021/07/14 02:17:06;;;;;;;5.17;3.03;;;17.40;1.00;18.20;99876.00;;;;4908560;29;20569;-84
2021/07/14 02:19:37;;;;;;;3.53;3.23;;;17.40;1.00;18.20;99878.00;;;;4907652;29;20495;-84
2021/07/14 02:22:05;;;;;;;5.60;3.30;;;17.40;1.00;18.20;99900.00;;;;4911577;29;20463;-83
2021/07/14 02:24:35;;;;;;;4.50;3.10;;;17.30;1.00;18.20;99925.00;;;;4910443;29;20492;-84
2021/07/14 02:27:06;;;;;;;3.17;2.83;;;17.40;1.00;18.20;99920.00;;;;4939280;29;20474;-84
2021/07/14 02:29:38;;;;;;;3.53;3.23;;;17.40;1.00;18.20;99929.00;;;;4951948;29;20466;-83
2021/07/14 02:32:09;;;;;;;4.10;3.70;;;17.30;1.00;17.80;99910.00;;;;4914999;29;20466;-83
2021/07/14 02:34:43;;;;;;;3.93;3.63;;;17.30;1.00;18.20;99933.00;;;;4932574;29;21299;-83
2021/07/14 02:37:14;;;;;;;4.20;3.43;;;17.20;1.00;18.20;99769.00;;;;4906437;29;20575;-84
2021/07/14 02:39:48;;;;;;;3.20;2.80;;;17.30;1.00;18.20;99891.00;;;;4928872;29;20483;-83
2021/07/14 02:42:28;;;;;;;5.20;3.07;;;17.30;1.00;18.10;99934.00;;;;4924158;29;20459;-83
2021/07/14 02:45:00;;;;;;;5.07;3.13;;;17.30;1.00;18.10;99904.00;;;;4929267;29;20925;-84
2021/07/14 02:47:36;;;;;;;3.97;3.20;;;17.20;1.00;18.20;99949.00;;;;4901127;29;20692;-84
2021/07/14 02:50:07;;;;;;;3.83;3.07;;;17.30;1.00;18.10;99910.00;;;;4908656;29;20462;-84
2021/07/14 02:52:39;;;;;;;6.80;2.90;;;17.30;1.00;18.10;99945.00;;;;4907037;29;20544;-84
2021/07/14 02:55:14;;;;;;;2.93;2.63;;;17.30;1.00;18.10;99961.00;;;;4934518;29;20460;-84
2021/07/14 02:57:44;;;;;;;6.13;3.10;;;17.30;1.00;18.10;99950.00;;;;4906365;29;20482;-84
2021/07/14 03:00:15;;;;;;;3.83;2.80;;;17.20;1.00;18.10;99957.00;;;;4899537;29;20483;-84
2021/07/14 03:02:46;;;;;;;2.97;2.67;;;17.20;1.00;18.10;99949.00;;;;4906394;29;20534;-84
2021/07/14 03:05:16;;;;;;;3.97;2.80;;;17.30;1.00;18.10;99951.00;;;;4905786;29;20979;-83
2021/07/14 03:07:46;;;;;;;4.77;2.97;;;17.20;1.00;18.10;99947.00;;;;4908131;29;20484;-84
2021/07/14 03:10:18;;;;;;;2.80;2.60;;;17.30;1.00;18.10;99898.00;;;;4899905;29;20987;-84
2021/07/14 03:12:49;;;;;;;4.10;2.60;;;17.30;1.00;18.10;99933.00;;;;4936177;29;20474;-84
2021/07/14 03:15:19;;;;;;;3.40;3.10;;;17.20;1.00;18.20;99968.00;;;;4926973;29;20451;-84
2021/07/14 03:17:50;;;;;;;3.60;3.17;;;17.20;1.00;18.10;99891.00;;;;4933794;29;20479;-84
2021/07/14 03:20:19;;;;;;;4.00;3.57;;;17.20;1.00;18.10;99880.00;;;;4906667;29;21093;-83
2021/07/14 03:22:51;;;;;;;3.90;3.13;;;17.20;1.00;18.10;99937.00;;;;4898874;29;21157;-84
2021/07/14 03:25:20;;;;;;;3.47;3.17;;;17.20;1.00;18.00;99922.00;;;;4926999;29;20502;-85
2021/07/14 03:27:51;;;;;;;3.83;3.00;;;17.20;1.00;18.10;99918.00;;;;4926063;29;20747;-82
2021/07/14 03:30:23;;;;;;;4.50;3.70;;;17.20;1.00;18.00;99915.00;;;;4924249;29;20459;-84
2021/07/14 03:32:52;;;;;;;4.60;3.40;;;17.20;1.00;18.10;99918.00;;;;4925256;29;20519;-82
2021/07/14 03:35:20;;;;;;;5.97;3.60;;;17.20;1.00;18.10;99882.00;;;;4900454;29;20547;-82
2021/07/14 03:37:50;;;;;;;6.60;4.23;;;17.20;1.00;18.10;99917.00;;;;4923806;29;20574;-83
2021/07/14 03:40:19;;;;;;;5.10;3.90;;;17.20;1.00;18.10;99910.00;;;;4891380;29;20579;-83
2021/07/14 03:42:52;;;;;;;5.50;3.83;;;17.20;1.00;18.10;99920.00;;;;4923688;29;20471;-83
2021/07/14 03:45:23;;;;;;;4.60;4.20;;;17.20;1.00;18.10;99927.00;;;;4893778;29;20463;-83
2021/07/14 03:47:51;;;;;;;9.37;3.47;;;17.20;1.00;18.10;99900.00;;;;4901381;29;20474;-83
2021/07/14 03:50:22;;;;;;;6.47;3.57;;;17.20;1.00;18.20;99902.00;;;;4926397;29;20548;-83
2021/07/14 03:52:53;;;;;;;4.57;3.70;;;17.30;1.00;18.20;99945.00;;;;4903684;29;20479;-83
2021/07/14 03:55:21;;;;;;;4.13;3.73;;;17.30;1.00;18.10;99914.00;;;;4925719;29;20468;-83
2021/07/14 03:57:50;;;;;;;4.53;4.13;;;17.20;1.00;18.10;99920.00;;;;4896133;29;20482;-84
2021/07/14 04:00:18;;;;;;;7.80;4.23;;;17.20;1.00;18.20;99919.00;;;;4926291;29;20583;-83
2021/07/14 04:02:49;;;;;;;5.53;4.37;;;17.20;1.00;18.20;99892.00;;;;4895205;29;20519;-83
2021/07/14 04:05:17;;;;;;;4.17;3.77;;;17.30;1.00;18.20;99880.00;;;;4896434;29;21037;-83
2021/07/14 04:07:48;;;;;;;6.80;3.37;;;17.20;1.00;18.10;99945.00;;;;4924983;29;20515;-83
2021/07/14 04:10:17;;;;;;;9.23;4.17;;;17.30;1.00;18.20;99905.00;;;;4903383;29;20519;-83
2021/07/14 04:12:46;;;;;;;5.03;4.07;;;17.30;1.00;18.20;99876.00;;;;4900418;29;20535;-83
2021/07/14 04:15:15;;;;;;;3.93;3.60;;;17.30;1.00;18.20;99921.00;;;;4933662;29;20463;-83
2021/07/14 04:17:43;;;;;;;4.53;3.63;;;17.30;1.00;18.20;99926.00;;;;4915555;29;20515;-83
2021/07/14 04:20:14;;;;;;;4.57;4.17;;;17.30;1.00;18.20;99878.00;;;;4938971;29;20512;-83
2021/07/14 04:22:43;;;;;;;5.37;4.23;;;17.30;1.00;18.20;99912.00;;;;4921113;29;20451;-83
2021/07/14 04:25:12;;;;;;;4.57;3.70;;;17.40;1.00;18.20;99867.00;;;;4912012;29;20523;-83
2021/07/14 04:27:41;;;;;;;4.30;3.90;;;17.40;1.00;18.20;99883.00;;;;4904813;29;20515;-84
2021/07/14 04:30:11;;;;;;;4.30;4.00;;;17.40;1.00;18.30;99904.00;;;;4902588;29;20467;-83
2021/07/14 04:32:40;;;;;;;4.70;3.77;;;17.40;1.00;18.30;99948.00;;;;4905518;29;20451;-84
2021/07/14 04:35:09;;;;;;;6.43;4.07;;;17.40;1.00;18.30;99897.00;;;;4906710;29;20479;-83
2021/07/14 04:37:39;;;;;;;4.30;3.90;;;17.50;1.00;18.30;99905.00;;;;4927218;29;20483;-83
2021/07/14 04:40:10;;;;;;;5.53;4.30;;;17.50;1.00;18.40;99924.00;;;;4905847;29;20515;-83
2021/07/14 04:42:38;;;;;;;5.00;3.60;;;17.50;1.00;18.40;99941.00;;;;4943663;29;20492;-84
2021/07/14 04:45:08;;;;;;;5.17;4.67;;;17.50;1.00;18.40;99911.00;;;;4941506;29;20464;-84
2021/07/14 04:47:37;;;;;;;7.40;4.27;;;17.50;1.00;18.40;99958.00;;;;4942954;29;20481;-82
2021/07/14 04:50:07;;;;;;;4.67;4.10;;;17.50;1.00;18.40;99963.00;;;;4937819;29;20466;-84
2021/07/14 04:52:36;;;;;;;5.27;3.83;;;17.50;1.00;18.40;99955.00;;;;4897178;29;21058;-86
2021/07/14 04:55:09;;;;;;;7.23;4.23;;;17.50;1.00;18.40;99944.00;;;;4892318;29;20466;-83
2021/07/14 04:57:37;;;;;;;5.57;3.90;;;17.60;1.00;18.40;99945.00;;;;4925042;29;20597;-85
2021/07/14 05:00:08;;;;;;;4.73;3.77;;;17.60;1.00;18.40;99918.00;;;;4924000;29;20470;-84
2021/07/14 05:02:37;;;;;;;6.03;3.40;;;17.50;1.00;18.40;99923.00;;;;4924651;29;20499;-85
2021/07/14 05:05:06;;;;;;;3.50;3.20;;;17.50;1.00;18.50;99903.00;;;;4893138;29;20538;-84
2021/07/14 05:07:35;;;;;;;4.10;3.70;;;17.60;1.00;18.50;99918.00;;;;4900894;29;20505;-81
2021/07/14 05:10:06;;;;;;;4.10;2.97;;;17.60;1.00;18.50;99913.00;;;;4909797;29;20451;-82
2021/07/14 05:12:34;;;;;;;4.13;3.43;;;17.60;1.00;18.60;99918.00;;;;4900848;29;20890;-81
2021/07/14 05:15:03;;;;;;;3.30;3.00;;;17.60;1.00;18.60;99928.00;;;;4928379;29;20471;-82
2021/07/14 05:17:32;;;;;;;3.73;3.43;;;17.70;1.00;18.60;99929.00;;;;4926181;29;20493;-81
2021/07/14 05:20:01;;;;;;;3.60;3.30;;;17.70;1.00;18.60;99944.00;;;;4931590;29;20502;-84
2021/07/14 05:22:29;;;;;;;5.43;3.43;;;17.70;1.00;18.60;99945.00;;;;4896478;29;20514;-82
2021/07/14 05:24:58;;;;;;;3.40;3.10;;;17.80;1.00;18.80;99939.00;;;;4929006;29;20987;-84
2021/07/14 05:27:28;;;;;;;4.93;3.33;;;17.80;1.00;18.80;99927.00;;;;4924151;29;20547;-84
2021/07/14 05:29:56;;;;;;;4.40;3.43;;;17.90;1.00;18.90;99912.00;;;;4902355;29;20586;-84
2021/07/14 05:32:24;;;;;;;5.97;3.83;;;18.00;1.00;18.60;99840.00;;;;4925033;29;20475;-83
2021/07/14 05:34:53;;;;;;;3.87;3.30;;;18.10;1.00;19.00;99873.00;;;;4893170;29;20559;-84
2021/07/14 05:37:21;;;;;;;4.40;3.27;;;18.10;1.00;19.20;99790.00;;;;4892588;29;20522;-82
2021/07/14 05:39:50;;;;;;;3.87;3.40;;;18.20;1.00;19.20;99900.00;;;;4922379;29;20515;-83
2021/07/14 05:42:18;;;;;;;4.00;3.60;;;18.30;1.00;19.20;99939.00;;;;4924510;29;20491;-84
2021/07/14 05:44:48;;;;;;;7.97;5.03;;;18.30;1.00;19.30;99921.00;;;;4890553;29;20463;-84
2021/07/14 05:47:17;;;;;;;3.87;3.47;;;18.30;1.00;19.00;99931.00;;;;4899687;29;20491;-81
2021/07/14 05:49:45;;;;;;;4.20;3.47;;;18.20;1.00;19.00;99946.00;;;;4891365;29;20463;-84
2021/07/14 05:52:14;;;;;;;5.40;3.30;;;18.10;1.00;19.10;99941.00;;;;4890596;29;20467;-82
2021/07/14 05:54:43;;;;;;;4.20;3.80;;;18.10;1.00;19.10;99850.00;;;;4908678;29;20473;-82
2021/07/14 05:57:11;;;;;;;3.80;3.40;;;18.20;1.00;19.00;99914.00;;;;4910450;29;20506;-83
2021/07/14 05:59:40;;;;;;;3.40;3.10;;;18.10;1.00;19.00;99946.00;;;;4922780;29;20953;-84
2021/07/14 06:02:10;;;;;;;4.00;3.67;;;18.00;1.00;19.00;99910.00;;;;4923005;29;20482;-83
2021/07/14 06:04:39;;;;;;;3.10;2.80;;;18.00;1.00;19.00;99918.00;;;;4899342;29;20459;-84
2021/07/14 06:07:08;;;;;;;4.73;3.17;;;18.10;1.00;19.10;99912.00;;;;4884991;29;20483;-83
2021/07/14 06:09:36;;;;;;;4.93;3.33;;;18.10;1.00;19.10;99884.00;;;;4901717;29;20580;-83
2021/07/14 06:12:06;;;;;;;6.63;3.60;;;18.10;1.00;19.10;99945.00;;;;4934984;29;20452;-81
2021/07/14 06:14:34;;;;;;;4.27;3.17;;;18.20;1.00;19.10;99939.00;;;;4915111;29;20456;-83
2021/07/14 06:17:03;;;;;;;3.53;3.20;;;18.20;1.00;19.00;99907.00;;;;4944694;29;20499;-82
2021/07/14 06:19:33;;;;;;;3.90;2.93;;;18.10;1.00;19.00;99954.00;;;;4940664;29;20451;-83
2021/07/14 06:22:02;;;;;;;3.40;3.00;;;18.10;1.00;18.90;99923.00;;;;4895374;29;20990;-82
2021/07/14 06:24:31;;;;;;;4.90;3.50;;;18.00;1.00;18.80;99977.00;;;;4911796;29;20526;-83
2021/07/14 06:27:12;;;;;;;5.63;3.03;;;17.90;1.00;18.60;99964.00;;;;4899928;29;20582;-84
2021/07/14 06:29:41;;;;;;;3.03;2.80;;;17.90;1.00;18.80;99949.00;;;;4892777;29;20463;-84
2021/07/14 06:32:29;;;;;;;7.80;4.03;;;17.80;1.00;18.90;99953.00;;;;4890912;29;20999;-80
2021/07/14 06:34:59;;;;;;;6.00;3.53;;;17.90;1.00;18.90;99962.00;;;;4898724;29;20474;-84
2021/07/14 06:37:28;;;;;;;3.73;3.43;;;17.90;1.00;19.00;99953.00;;;;4920059;29;20494;-83
2021/07/14 06:39:57;;;;;;;5.00;3.47;;;18.00;1.00;19.00;99961.00;;;;4890130;29;20512;-84
2021/07/14 06:42:25;;;;;;;3.30;3.00;;;18.00;1.00;19.10;99930.00;;;;4900816;29;20596;-82
2021/07/14 06:44:54;;;;;;;4.23;3.07;;;18.10;1.00;19.10;99883.00;;;;4924075;29;20463;-83
2021/07/14 06:47:22;;;;;;;4.17;3.20;;;18.10;1.00;19.10;99896.00;;;;4895222;29;20561;-82
2021/07/14 06:49:51;;;;;;;5.60;3.60;;;18.10;1.00;19.20;99918.00;;;;4935072;29;20456;-81
2021/07/14 06:52:21;;;;;;;3.90;3.50;;;18.20;1.00;19.30;99852.00;;;;4938609;29;20467;-82
2021/07/14 06:54:50;;;;;;;4.73;3.43;;;18.20;1.00;19.30;99904.00;;;;4901645;29;20448;-82
2021/07/14 06:57:18;;;;;;;2.87;2.60;;;18.30;1.00;19.10;99891.00;;;;4927125;29;20511;-83
2021/07/14 06:59:47;;;;;;;3.43;2.90;;;18.20;1.00;19.10;99918.00;;;;4927362;29;20470;-84
2021/07/14 07:02:15;;;;;;;4.00;3.40;;;18.10;1.00;19.10;99888.00;;;;4901538;29;20585;-84
2021/07/14 07:04:45;;;;;;;3.20;2.90;;;18.10;1.00;19.20;99881.00;;;;4926788;29;20470;-84
2021/07/14 07:07:14;;;;;;;8.50;4.00;;;18.10;1.00;19.20;99882.00;;;;4926709;29;20495;-83
2021/07/14 07:09:44;;;;;;;7.80;3.03;;;18.10;1.00;19.20;99857.00;;;;4903958;29;20534;-84
2021/07/14 07:12:13;;;;;;;7.93;3.50;;;18.20;1.00;19.20;99894.00;;;;4924893;29;20459;-83
2021/07/14 07:14:41;;;;;;;4.23;3.77;;;18.20;1.00;19.20;99895.00;;;;4895663;29;20455;-85
2021/07/14 07:17:10;;;;;;;4.10;3.37;;;18.20;1.00;19.30;99898.00;;;;4894929;29;20483;-83
2021/07/14 07:19:38;;;;;;;4.60;4.20;;;18.20;1.00;19.40;99895.00;;;;4902166;29;20463;-83
2021/07/14 07:22:08;;;;;;;3.63;3.33;;;18.40;1.00;19.50;99848.00;;;;4926943;29;20493;-83
2021/07/14 07:24:36;;;;;;;5.03;3.13;;;18.40;1.00;19.50;99868.00;;;;4893198;29;20464;-83
2021/07/14 07:27:08;;;;;;;3.70;3.33;;;18.50;1.00;19.60;99888.00;;;;4925984;29;20565;-82
2021/07/14 07:29:37;;;;;;;8.80;3.70;;;18.50;1.00;19.50;99924.00;;;;4926521;29;20474;-84
2021/07/14 07:32:07;;;;;;;7.60;3.67;;;18.30;1.00;19.30;99933.00;;;;4898160;29;20639;-83
2021/07/14 07:34:38;;;;;;;7.23;4.03;;;18.20;1.00;19.20;99908.00;;;;4936935;29;20463;-83
2021/07/14 07:37:09;;;;;;;4.60;3.63;;;18.20;1.00;19.10;99922.00;;;;4906032;29;20530;-83
2021/07/14 07:39:40;;;;;;;4.33;3.77;;;18.20;1.00;19.40;99886.00;;;;4908891;29;20455;-83
2021/07/14 07:42:10;;;;;;;4.20;3.20;;;18.40;1.00;19.50;99915.00;;;;4905252;29;20626;-82
2021/07/14 07:44:38;;;;;;;4.13;3.33;;;18.40;1.00;19.40;99948.00;;;;4896423;29;20991;-81
2021/07/14 07:47:07;;;;;;;6.00;4.00;;;18.40;1.00;19.40;99950.00;;;;4928016;29;20511;-82
2021/07/14 07:49:38;;;;;;;5.13;3.60;;;18.40;1.00;19.30;99951.00;;;;4926716;29;20931;-84
2021/07/14 07:52:26;;;;;;;4.73;3.10;;;18.40;1.00;19.40;99940.00;;;;4897182;29;20470;-84
2021/07/14 07:54:56;;;;;;;5.50;4.30;;;18.40;1.00;19.50;99944.00;;;;4897321;29;20455;-85
2021/07/14 07:57:26;;;;;;;4.80;3.33;;;18.50;1.00;19.60;99902.00;;;;4893095;29;20479;-84
2021/07/14 07:59:55;;;;;;;4.80;3.30;;;18.50;1.00;19.50;99944.00;;;;4926592;29;21088;-83
2021/07/14 08:02:24;;;;;;;4.10;3.27;;;18.60;1.00;19.60;99790.00;;;;4933799;29;20471;-84
2021/07/14 08:04:52;;;;;;;8.77;3.60;;;18.60;1.00;19.70;99924.00;;;;4917674;29;20483;-83
2021/07/14 08:07:21;;;;;;;6.73;3.80;;;18.70;1.00;19.80;99914.00;;;;4940067;29;20501;-84
2021/07/14 08:09:49;;;;;;;4.90;3.70;;;18.80;1.00;19.90;99902.00;;;;4926945;29;20479;-82
2021/07/14 08:12:18;;;;;;;4.60;3.50;;;18.90;1.00;19.90;99941.00;;;;4920415;29;20467;-85
2021/07/14 08:14:48;;;;;;;4.30;3.27;;;18.90;1.00;19.90;99905.00;;;;4898627;29;20455;-85
2021/07/14 08:17:16;;;;;;;5.10;3.10;;;18.80;1.00;19.80;99875.00;;;;4898871;29;20475;-85
2021/07/14 08:19:45;;;;;;;4.07;3.37;;;18.80;1.00;19.60;99922.00;;;;4897392;29;20451;-83
2021/07/14 08:22:13;;;;;;;4.93;3.47;;;18.70;1.00;19.60;99936.00;;;;4895233;29;20504;-85
2021/07/14 08:24:42;;;;;;;4.97;3.20;;;18.60;1.00;19.50;99943.00;;;;4894044;29;20574;-85
2021/07/14 08:27:10;;;;;;;8.20;4.07;;;18.50;1.00;19.60;99947.00;;;;4904037;29;20495;-85
2021/07/14 08:29:40;;;;;;;5.47;3.60;;;18.60;1.00;19.70;99945.00;;;;4903627;29;20459;-85
2021/07/14 08:32:10;;;;;;;4.30;3.57;;;18.70;1.00;19.60;99953.00;;;;4923874;29;20522;-81
2021/07/14 08:34:38;;;;;;;7.10;3.90;;;18.60;1.00;19.60;99898.00;;;;4924515;29;20467;-82
2021/07/14 08:37:07;;;;;;;7.43;4.07;;;18.60;1.00;19.50;99931.00;;;;4927011;29;20531;-84
2021/07/14 08:39:36;;;;;;;4.07;3.67;;;18.50;1.00;19.50;99910.00;;;;4928155;29;20471;-84
2021/07/14 08:42:05;;;;;;;5.23;3.67;;;18.50;1.00;19.50;99896.00;;;;4928016;29;20459;-84
2021/07/14 08:44:35;;;;;;;7.33;4.40;;;18.50;1.00;19.50;99952.00;;;;4902291;29;20833;-82
2021/07/14 08:47:05;;;;;;;4.27;3.87;;;18.40;1.00;19.40;99929.00;;;;4927571;29;20484;-85
2021/07/14 08:49:36;;;;;;;6.10;4.20;;;18.40;1.00;19.40;99902.00;;;;4894564;29;20488;-85
2021/07/14 08:52:05;;;;;;;7.03;4.33;;;18.40;1.00;19.40;99940.00;;;;4923211;29;20735;-84
2021/07/14 08:54:34;;;;;;;5.63;3.60;;;18.30;1.00;19.30;99927.00;;;;4925037;29;20455;-83
2021/07/14 08:57:03;;;;;;;4.13;3.40;;;18.30;1.00;19.40;99968.00;;;;4894467;29;20485;-85
2021/07/14 08:59:32;;;;;;;4.80;3.67;;;18.30;1.00;19.40;99956.00;;;;4922907;29;20464;-84
2021/07/14 09:02:03;;;;;;;7.50;3.90;;;18.20;1.00;19.30;99889.00;;;;4896177;29;20922;-84
2021/07/14 09:04:34;;;;;;;8.77;4.00;;;18.30;1.00;19.30;99968.00;;;;4927484;29;21414;-85
2021/07/14 09:07:05;;;;;;;5.20;4.20;;;18.20;1.00;19.20;99982.00;;;;4892974;29;20511;-85
2021/07/14 09:09:35;;;;;;;7.37;4.20;;;18.10;1.00;19.20;99990.00;;;;4922766;29;20486;-85
2021/07/14 09:12:09;;;;;;;6.80;5.00;;;18.00;1.00;19.10;99966.00;;;;4926293;29;20555;-84
2021/07/14 09:14:40;;;;;;;5.17;4.50;;;17.90;1.00;19.00;99978.00;;;;4902251;29;20459;-84
2021/07/14 09:17:25;;;;;;;5.30;4.40;;;17.90;1.00;19.00;100027.00;;;;4904591;29;20511;-84
2021/07/14 09:20:09;;;;;;;6.00;4.50;;;17.80;1.00;18.80;100017.00;;;;4905311;29;20475;-84
2021/07/14 09:22:38;;;;;;;5.57;4.70;;;17.80;1.00;19.00;100021.00;;;;4903227;29;20455;-85
2021/07/14 09:25:15;;;;;;;8.17;4.37;;;17.80;1.00;19.00;100003.00;;;;4924352;29;20511;-84
2021/07/14 09:27:58;;;;;;;5.93;4.37;;;18.00;1.00;19.00;99965.00;;;;4927591;29;20490;-82
2021/07/14 09:30:27;;;;;;;4.73;3.90;;;18.10;1.00;19.30;99945.00;;;;4901703;29;20458;-83
2021/07/14 09:32:59;;;;;;;6.60;4.37;;;18.20;1.00;19.50;100000.00;;;;4894492;29;20782;-85
2021/07/14 09:35:34;;;;;;;4.93;4.43;;;18.40;1.00;19.50;99999.00;;;;4927519;29;20459;-83
2021/07/14 09:38:08;;;;;;;4.93;4.37;;;18.60;1.00;19.70;99972.00;;;;4902285;29;20483;-85
2021/07/14 09:40:37;;;;;;;5.33;4.53;;;18.80;1.00;19.80;99940.00;;;;4902294;29;20536;-83
2021/07/14 09:43:10;;;;;;;5.33;3.80;;;18.70;1.00;19.80;99999.00;;;;4926760;29;20850;-83
2021/07/14 09:45:46;;;;;;;4.83;4.10;;;18.80;1.00;19.90;99992.00;;;;4900750;29;20523;-84
2021/07/14 09:48:21;;;;;;;7.07;4.00;;;18.80;1.00;20.00;99965.00;;;;4901002;29;20482;-83
2021/07/14 09:50:56;;;;;;;3.97;3.57;;;18.90;1.00;20.30;100009.00;;;;4925881;29;20522;-85
2021/07/14 09:53:27;;;;;;;5.80;3.93;;;19.10;1.00;20.40;99968.00;;;;4894219;29;20969;-84
2021/07/14 09:55:58;;;;;;;6.90;3.87;;;19.40;1.00;20.50;99981.00;;;;4901638;29;20459;-84
2021/07/14 09:58:29;;;;;;;6.03;3.40;;;19.60;1.00;20.70;99983.00;;;;4894326;29;20547;-83
2021/07/14 10:01:00;;;;;;;5.43;3.67;;;19.60;1.00;20.80;99942.00;;;;4899513;29;20487;-83
2021/07/14 10:03:32;;;;;;;6.20;4.00;;;19.70;1.00;20.90;99941.00;;;;4941620;29;20548;-82
2021/07/14 10:06:05;;;;;;;5.80;3.20;;;19.80;1.00;20.90;99924.00;;;;4947093;29;20464;-83
2021/07/14 10:08:36;;;;;;;5.20;3.73;;;19.90;1.00;20.90;99980.00;;;;4913995;29;20494;-84
2021/07/14 10:11:18;;;;;;;3.60;3.10;;;19.90;1.00;20.90;99998.00;;;;4927427;29;21076;-85
2021/07/14 10:13:59;;;;;;;6.27;3.80;;;19.80;1.00;20.90;99977.00;;;;4926805;29;20510;-83
2021/07/14 10:16:31;;;;;;;4.87;3.67;;;19.90;1.00;21.00;99999.00;;;;4925080;29;20474;-83
2021/07/14 10:19:05;;;;;;;6.63;3.77;;;19.90;1.00;21.10;99965.00;;;;4925241;29;20901;-82
2021/07/14 10:21:38;;;;;;;5.63;4.43;;;20.10;1.00;21.20;100011.00;;;;4900038;29;20462;-82
2021/07/14 10:24:10;;;;;;;4.70;4.30;;;20.00;1.00;20.90;100022.00;;;;4900344;29;20505;-83
2021/07/14 10:26:43;;;;;;;4.37;3.97;;;19.90;1.00;20.90;100012.00;;;;4934728;29;20506;-84
2021/07/14 10:29:12;;;;;;;5.80;4.40;;;19.80;1.00;21.00;100012.00;;;;4912967;29;20526;-82
2021/07/14 10:31:42;;;;;;;6.10;4.57;;;19.80;1.00;21.00;99981.00;;;;4896290;29;20459;-85
2021/07/14 10:34:11;;;;;;;6.10;5.27;;;19.90;1.00;21.00;99973.00;;;;4910787;29;20467;-85
2021/07/14 10:36:43;;;;;;;6.60;5.10;;;19.90;1.00;20.90;99998.00;;;;4930908;29;20470;-84
2021/07/14 10:39:13;;;;;;;4.90;4.40;;;19.80;1.00;20.80;100024.00;;;;4894112;29;20463;-85
2021/07/14 10:41:43;;;;;;;5.43;4.90;;;19.70;1.00;20.80;99948.00;;;;4933338;29;20526;-84
2021/07/14 10:44:14;;;;;;;5.60;4.90;;;19.70;1.00;20.80;100035.00;;;;4909525;29;20862;-84
2021/07/14 10:46:42;;;;;;;5.70;4.57;;;19.70;1.00;20.70;100017.00;;;;4935051;29;20459;-82
2021/07/14 10:49:11;;;;;;;6.63;4.43;;;19.60;1.00;20.50;99986.00;;;;4909994;29;20459;-82
2021/07/14 10:51:41;;;;;;;5.43;4.07;;;19.70;1.00;20.50;100014.00;;;;4941218;29;20508;-82
2021/07/14 10:54:12;;;;;;;10.43;4.73;;;19.50;1.00;20.70;100028.00;;;;4906410;29;20459;-83
2021/07/14 10:56:45;;;;;;;6.10;5.53;;;19.60;1.00;20.80;100023.00;;;;4929116;29;20522;-83
2021/07/14 10:59:15;;;;;;;13.87;5.00;;;19.60;1.00;20.80;99973.00;;;;4916224;29;20463;-82
2021/07/14 11:01:48;;;;;;;8.03;4.70;;;19.60;1.00;20.90;99844.00;;;;4940988;29;20467;-82
2021/07/14 11:04:53;;;;;;;5.93;5.33;;;19.70;1.00;20.70;100006.00;;;;4912877;29;21088;-82
2021/07/14 11:07:39;;;;;;;5.50;5.00;;;19.60;1.00;20.50;100031.00;;;;4918307;29;20486;-81
2021/07/14 11:10:38;;;;;;;6.20;5.10;;;19.40;1.00;20.20;100063.00;;;;4910972;29;20453;-83
2021/07/14 11:13:28;;;;;;;8.73;5.50;;;19.20;1.00;20.10;100021.00;;;;4918926;29;20459;-82
2021/07/14 11:15:58;;;;;;;5.90;5.30;;;19.10;1.00;20.10;100041.00;;;;4908779;29;20463;-83
2021/07/14 11:18:38;;;;;;;7.30;4.83;;;19.00;1.00;20.00;100030.00;;;;4904716;29;20521;-81
2021/07/14 11:21:07;;;;;;;9.20;5.70;;;19.00;1.00;19.80;100034.00;;;;4942118;29;20534;-82
2021/07/14 11:23:47;;;;;;;5.53;4.93;;;19.00;1.00;20.10;100034.00;;;;4939291;29;20495;-81
2021/07/14 11:26:26;;;;;;;7.17;5.20;;;19.00;1.00;20.20;100034.00;;;;4906893;29;20474;-82
2021/07/14 11:29:12;;;;;;;5.57;5.07;;;19.10;1.00;20.30;100025.00;;;;4911203;29;20550;-82